createdAt,value
2024-05-09T00:01:38.384Z,79.30
2024-05-09T00:04:40.897Z,79.11
2024-05-09T00:07:43.416Z,78.77
2024-05-09T00:10:46.067Z,79.29
2024-05-09T00:13:48.656Z,79.48
2024-05-09T00:16:51.257Z,80.19
2024-05-09T00:19:53.980Z,79.51
2024-05-09T00:22:56.581Z,80.09
2024-05-09T00:25:59.104Z,79.75
2024-05-09T00:29:01.697Z,80.09
2024-05-09T00:32:04.732Z,80.28
2024-05-09T00:35:07.491Z,80.42
2024-05-09T00:38:10.776Z,80.73
2024-05-09T00:41:16.346Z,81.55
2024-05-09T00:44:19.674Z,81.15
2024-05-09T00:47:23.984Z,80.93
2024-05-09T00:50:35.452Z,80.34
2024-05-09T00:53:39.910Z,80.95
2024-05-09T00:56:42.704Z,82.72
2024-05-09T00:59:45.315Z,84.12
2024-05-09T01:02:47.964Z,86.71
2024-05-09T01:05:50.615Z,86.76
2024-05-09T01:08:53.455Z,86.08
2024-05-09T01:11:56.220Z,85.99
2024-05-09T01:14:58.815Z,85.78
2024-05-09T01:18:06.874Z,85.58
2024-05-09T01:21:09.898Z,85.30
2024-05-09T01:24:12.461Z,85.94
2024-05-09T01:27:14.974Z,85.19
2024-05-09T01:30:21.360Z,84.94
2024-05-09T01:33:30.989Z,84.73
2024-05-09T01:36:33.777Z,84.78
2024-05-09T01:39:36.282Z,85.22
2024-05-09T01:42:38.764Z,85.68
2024-05-09T01:45:41.775Z,85.55
2024-05-09T01:48:44.885Z,85.42
2024-05-09T01:51:47.441Z,85.69
2024-05-09T01:54:49.937Z,85.09
2024-05-09T01:57:52.488Z,85.20
2024-05-09T02:00:55.047Z,86.44
2024-05-09T02:03:57.738Z,88.23
2024-05-09T02:07:00.363Z,88.19
2024-05-09T02:10:08.366Z,86.84
2024-05-09T02:13:14.035Z,87.92
2024-05-09T02:16:16.549Z,90.76
2024-05-09T02:19:19.164Z,89.72
2024-05-09T02:22:21.667Z,90.03
2024-05-09T02:25:24.799Z,90.40
2024-05-09T02:28:27.308Z,89.15
2024-05-09T02:31:29.814Z,88.13
2024-05-09T02:34:32.882Z,87.42
2024-05-09T02:37:35.389Z,86.93
2024-05-09T02:40:39.493Z,87.64
2024-05-09T02:43:42.838Z,89.72
2024-05-09T02:46:45.381Z,90.70
2024-05-09T02:49:47.947Z,90.84
2024-05-09T02:52:50.583Z,90.45
2024-05-09T02:55:53.194Z,89.16
2024-05-09T02:58:56.674Z,88.52
2024-05-09T03:02:00.770Z,88.00
2024-05-09T03:05:09.911Z,87.55
2024-05-09T03:08:12.730Z,87.65
2024-05-09T03:11:25.277Z,87.57
2024-05-09T03:14:28.370Z,87.51
2024-05-09T03:17:31.248Z,87.29
2024-05-09T03:20:35.849Z,87.28
2024-05-09T03:23:42.809Z,88.63
2024-05-09T03:26:45.572Z,87.96
2024-05-09T03:29:48.041Z,87.84
2024-05-09T03:32:50.701Z,88.57
2024-05-09T03:35:53.212Z,87.87
2024-05-09T03:38:55.732Z,87.56
2024-05-09T03:41:58.235Z,86.92
2024-05-09T03:45:00.742Z,86.05
2024-05-09T03:48:03.526Z,84.56
2024-05-09T03:51:06.861Z,83.19
2024-05-09T03:54:09.641Z,80.25
2024-05-09T03:57:12.144Z,79.46
2024-05-09T04:00:18.354Z,77.71
2024-05-09T04:03:28.983Z,76.15
2024-05-09T04:06:31.602Z,72.57
2024-05-09T04:09:34.066Z,69.69
2024-05-09T04:12:37.280Z,70.70
2024-05-09T04:15:39.860Z,70.50
2024-05-09T04:18:42.434Z,70.58
2024-05-09T04:21:44.923Z,67.50
2024-05-09T04:24:48.119Z,65.65
2024-05-09T04:27:55.377Z,65.22
2024-05-09T04:30:57.890Z,61.53
2024-05-09T04:34:00.508Z,58.21
2024-05-09T04:37:03.326Z,56.97
2024-05-09T04:40:08.974Z,56.35
2024-05-09T04:43:19.309Z,57.29
2024-05-09T04:46:21.852Z,56.42
2024-05-09T04:49:24.592Z,58.21
2024-05-09T04:52:27.104Z,59.76
2024-05-09T04:55:29.602Z,60.83
2024-05-09T04:58:32.106Z,62.67
2024-05-09T05:01:34.615Z,63.62
2024-05-09T05:04:37.118Z,64.49
2024-05-09T05:07:39.637Z,63.90
2024-05-09T05:10:42.677Z,64.08
2024-05-09T05:13:45.240Z,64.99
2024-05-09T05:16:47.853Z,65.09
2024-05-09T05:19:50.489Z,64.37
2024-05-09T05:22:53.053Z,64.36
2024-05-09T05:25:55.903Z,63.88
2024-05-09T05:28:58.553Z,63.99
2024-05-09T05:32:01.304Z,63.98
2024-05-09T05:35:04.771Z,63.60
2024-05-09T05:38:07.916Z,64.09
2024-05-09T05:41:10.520Z,63.76
2024-05-09T05:44:14.183Z,63.34
2024-05-09T05:47:16.870Z,63.01
2024-05-09T05:50:27.392Z,62.66
2024-05-09T05:53:35.793Z,63.18
2024-05-09T05:56:38.485Z,63.64
2024-05-09T05:59:41.095Z,63.52
2024-05-09T06:02:43.812Z,63.43
2024-05-09T06:05:46.604Z,63.85
2024-05-09T06:08:49.359Z,63.79
2024-05-09T06:11:52.066Z,63.50
2024-05-09T06:14:54.617Z,62.43
2024-05-09T06:17:57.266Z,62.20
2024-05-09T06:20:59.930Z,62.30
2024-05-09T06:24:06.229Z,61.97
2024-05-09T06:27:09.399Z,61.04
2024-05-09T06:30:24.851Z,61.23
2024-05-09T06:33:32.190Z,61.19
2024-05-09T06:36:34.941Z,61.11
2024-05-09T06:39:37.340Z,60.43
2024-05-09T06:42:39.860Z,60.06
2024-05-09T06:45:42.498Z,60.97
2024-05-09T06:48:45.479Z,60.92
2024-05-09T06:51:48.287Z,61.08
2024-05-09T06:54:50.761Z,60.67
2024-05-09T06:57:53.278Z,59.81
2024-05-09T07:00:55.733Z,59.89
2024-05-09T07:03:58.308Z,59.79
2024-05-09T07:07:00.833Z,59.43
2024-05-09T07:10:04.089Z,58.87
2024-05-09T07:13:13.216Z,57.82
2024-05-09T07:16:16.055Z,58.42
2024-05-09T07:19:19.073Z,58.05
2024-05-09T07:22:22.833Z,57.88
2024-05-09T07:25:25.304Z,57.39
2024-05-09T07:28:27.713Z,57.34
2024-05-09T07:31:31.224Z,57.77
2024-05-09T07:34:34.089Z,58.05
2024-05-09T07:37:36.684Z,57.30
2024-05-09T07:40:40.664Z,57.28
2024-05-09T07:43:44.243Z,56.75
2024-05-09T07:47:48.536Z,56.97
2024-05-09T07:53:37.761Z,56.96
2024-05-09T07:56:37.360Z,55.98
2024-05-09T07:59:39.911Z,54.72
2024-05-09T08:02:42.436Z,53.82
2024-05-09T08:05:44.955Z,53.86
2024-05-09T08:08:47.681Z,53.38
2024-05-09T08:11:52.394Z,53.65
2024-05-09T08:14:56.127Z,52.77
2024-05-09T08:18:00.001Z,53.24
2024-05-09T08:21:02.654Z,51.59
2024-05-09T08:24:05.430Z,51.85
2024-05-09T08:27:08.065Z,50.86
2024-05-09T08:30:18.802Z,50.01
2024-05-09T08:33:27.517Z,49.35
2024-05-09T08:36:30.122Z,49.29
2024-05-09T08:39:32.644Z,46.93
2024-05-09T08:42:36.513Z,45.97
2024-05-09T08:45:41.866Z,46.54
2024-05-09T08:48:48.024Z,45.13
2024-05-09T08:51:50.865Z,46.25
2024-05-09T08:54:54.942Z,44.86
2024-05-09T08:57:59.110Z,44.29
2024-05-09T09:01:03.743Z,41.65
2024-05-09T09:04:09.577Z,42.10
2024-05-09T09:07:12.698Z,42.51
2024-05-09T09:10:28.901Z,42.79
2024-05-09T09:13:34.207Z,41.63
2024-05-09T09:16:37.314Z,43.00
2024-05-09T09:19:40.266Z,43.05
2024-05-09T09:22:42.742Z,42.40
2024-05-09T09:25:45.353Z,43.79
2024-05-09T09:28:47.906Z,41.72
2024-05-09T09:31:59.942Z,42.24
2024-05-09T09:35:02.608Z,41.86
2024-05-09T09:38:07.307Z,42.01
2024-05-09T09:41:12.961Z,42.34
2024-05-09T09:44:16.906Z,41.08
2024-05-09T09:47:20.363Z,41.68
2024-05-09T09:50:31.724Z,40.53
2024-05-09T09:53:38.236Z,41.01
2024-05-09T09:56:41.531Z,41.14
2024-05-09T09:59:46.669Z,41.02
2024-05-09T10:02:49.187Z,40.95
2024-05-09T10:05:52.369Z,40.55
2024-05-09T10:08:55.386Z,39.46
2024-05-09T10:12:09.605Z,39.68
2024-05-09T10:15:12.409Z,39.27
2024-05-09T10:18:15.373Z,38.88
2024-05-09T10:21:19.210Z,39.03
2024-05-09T10:24:21.647Z,39.05
2024-05-09T10:27:28.208Z,38.99
2024-05-09T10:30:35.855Z,39.21
2024-05-09T10:33:50.843Z,40.29
2024-05-09T10:36:54.658Z,39.52
2024-05-09T10:39:58.576Z,39.25
2024-05-09T10:43:05.814Z,38.46
2024-05-09T10:46:11.030Z,38.13
2024-05-09T10:49:14.735Z,38.77
2024-05-09T10:52:20.998Z,38.99
2024-05-09T10:55:23.569Z,38.08
2024-05-09T10:58:27.040Z,36.99
2024-05-09T11:01:29.615Z,37.52
2024-05-09T11:04:36.900Z,37.06
2024-05-09T11:07:39.515Z,38.20
2024-05-09T11:10:44.397Z,38.38
2024-05-09T11:13:47.028Z,38.28
2024-05-09T11:17:06.251Z,38.40
2024-05-09T11:20:16.705Z,38.36
2024-05-09T11:23:26.988Z,38.65
2024-05-09T11:26:31.773Z,38.27
2024-05-09T11:29:44.654Z,38.27
2024-05-09T11:32:47.267Z,38.52
2024-05-09T11:35:49.891Z,38.84
2024-05-09T11:38:52.529Z,38.54
2024-05-09T11:41:55.001Z,38.30
2024-05-09T11:44:57.501Z,36.89
2024-05-09T11:48:00.245Z,37.95
2024-05-09T11:51:02.860Z,38.26
2024-05-09T11:54:05.352Z,37.41
2024-05-09T11:57:09.370Z,38.04
2024-05-09T12:00:18.197Z,37.45
2024-05-09T12:03:27.835Z,38.11
2024-05-09T12:06:30.545Z,37.47
2024-05-09T12:09:34.064Z,37.27
2024-05-09T12:12:37.520Z,38.62
2024-05-09T12:15:40.277Z,38.30
2024-05-09T12:18:42.896Z,38.25
2024-05-09T12:21:45.539Z,37.25
2024-05-09T12:24:48.023Z,37.95
2024-05-09T12:27:50.845Z,38.67
2024-05-09T12:30:53.378Z,38.89
2024-05-09T12:33:55.981Z,37.32
2024-05-09T12:36:58.736Z,38.39
2024-05-09T12:40:01.275Z,38.67
2024-05-09T12:43:04.483Z,38.26
2024-05-09T12:46:07.337Z,39.04
2024-05-09T12:49:10.071Z,38.29
2024-05-09T12:52:12.999Z,38.55
2024-05-09T12:55:15.671Z,38.73
2024-05-09T12:58:18.937Z,38.97
2024-05-09T13:01:21.840Z,37.73
2024-05-09T13:04:24.583Z,37.41
2024-05-09T13:07:27.292Z,37.22
2024-05-09T13:10:32.725Z,37.16
2024-05-09T13:13:36.028Z,37.42
2024-05-09T13:16:38.689Z,37.09
2024-05-09T13:19:41.226Z,37.97
2024-05-09T13:22:44.329Z,38.06
2024-05-09T13:25:46.915Z,38.07
2024-05-09T13:28:49.379Z,36.80
2024-05-09T13:31:51.883Z,36.73
2024-05-09T13:34:54.416Z,36.36
2024-05-09T13:37:56.918Z,37.45
2024-05-09T13:40:59.458Z,37.76
2024-05-09T13:44:03.384Z,37.08
2024-05-09T13:47:06.050Z,37.30
2024-05-09T13:50:14.084Z,36.63
2024-05-09T13:53:19.299Z,36.68
2024-05-09T13:56:21.867Z,37.20
2024-05-09T13:59:24.398Z,37.12
2024-05-09T14:02:26.991Z,36.51
2024-05-09T14:05:30.696Z,36.23
2024-05-09T14:08:33.355Z,35.64
2024-05-09T14:11:36.658Z,36.51
2024-05-09T14:14:39.287Z,35.26
2024-05-09T14:17:41.951Z,34.77
2024-05-09T14:20:44.493Z,35.10
2024-05-09T14:23:46.967Z,34.86
2024-05-09T14:26:49.644Z,33.24
2024-05-09T14:29:52.063Z,33.83
2024-05-09T14:32:54.625Z,34.18
2024-05-09T14:35:57.381Z,34.62
2024-05-09T14:38:59.988Z,34.60
2024-05-09T14:42:02.462Z,34.47
2024-05-09T14:45:06.053Z,34.06
2024-05-09T14:48:08.957Z,34.16
2024-05-09T14:51:11.714Z,33.53
2024-05-09T14:54:14.270Z,34.04
2024-05-09T14:57:16.792Z,34.05
2024-05-09T15:00:26.238Z,33.65
2024-05-09T15:03:35.438Z,34.62
2024-05-09T15:06:39.754Z,35.24
2024-05-09T15:09:42.372Z,34.66
2024-05-09T15:12:44.903Z,35.20
2024-05-09T15:15:47.888Z,35.07
2024-05-09T15:18:50.972Z,34.69
2024-05-09T15:21:53.556Z,35.07
2024-05-09T15:24:56.134Z,35.20
2024-05-09T15:27:58.866Z,34.69
2024-05-09T15:31:01.403Z,33.96
2024-05-09T15:34:04.075Z,34.00
2024-05-09T15:37:07.295Z,34.85
2024-05-09T15:40:15.266Z,35.14
2024-05-09T15:43:24.962Z,35.38
2024-05-09T15:46:27.765Z,35.34
2024-05-09T15:49:30.758Z,34.97
2024-05-09T15:52:33.542Z,34.91
2024-05-09T15:55:36.287Z,34.90
2024-05-09T15:58:39.045Z,34.85
2024-05-09T16:01:41.742Z,35.40
2024-05-09T16:04:44.355Z,36.17
2024-05-09T16:07:46.988Z,35.70
2024-05-09T16:10:49.641Z,36.54
2024-05-09T16:13:52.224Z,37.50
2024-05-09T16:16:54.898Z,37.58
2024-05-09T16:19:57.511Z,38.20
2024-05-09T16:23:00.129Z,38.43
2024-05-09T16:26:02.672Z,38.27
2024-05-09T16:29:05.156Z,38.34
2024-05-09T16:32:07.769Z,38.61
2024-05-09T16:35:10.325Z,39.12
2024-05-09T16:38:13.358Z,39.08
2024-05-09T16:41:16.131Z,38.81
2024-05-09T16:44:18.688Z,39.27
2024-05-09T16:47:21.327Z,38.83
2024-05-09T16:50:29.400Z,38.71
2024-05-09T16:53:35.786Z,38.08
2024-05-09T16:56:38.324Z,38.09
2024-05-09T16:59:40.822Z,38.07
2024-05-09T17:02:46.104Z,38.08
2024-05-09T17:05:50.292Z,37.43
2024-05-09T17:08:53.131Z,37.86
2024-05-09T17:11:56.581Z,38.35
2024-05-09T17:14:59.080Z,38.90
2024-05-09T17:18:02.243Z,38.57
2024-05-09T17:21:05.184Z,38.41
2024-05-09T17:24:07.648Z,38.07
2024-05-09T17:27:10.334Z,38.15
2024-05-09T17:30:17.946Z,38.09
2024-05-09T17:33:28.568Z,38.23
2024-05-09T17:36:31.202Z,38.18
2024-05-09T17:39:34.010Z,38.56
2024-05-09T17:42:36.593Z,39.28
2024-05-09T17:45:40.970Z,40.41
2024-05-09T17:48:44.539Z,41.38
2024-05-09T17:51:54.095Z,42.23
2024-05-09T17:54:56.603Z,43.11
2024-05-09T17:57:59.265Z,43.81
2024-05-09T18:01:01.984Z,44.40
2024-05-09T18:04:05.208Z,44.92
2024-05-09T18:07:07.792Z,45.20
2024-05-09T18:10:19.253Z,45.73
2024-05-09T18:13:28.762Z,46.33
2024-05-09T18:16:31.693Z,46.97
2024-05-09T18:19:34.577Z,47.61
2024-05-09T18:22:37.312Z,48.12
2024-05-09T18:25:39.921Z,48.70
2024-05-09T18:28:42.435Z,49.18
2024-05-09T18:31:44.951Z,49.35
2024-05-09T18:34:47.548Z,50.77
2024-05-09T18:37:50.117Z,52.18
2024-05-09T18:40:53.520Z,51.35
2024-05-09T18:43:57.067Z,51.01
2024-05-09T18:46:59.823Z,51.14
2024-05-09T18:50:02.462Z,54.64
2024-05-09T18:53:05.909Z,53.77
2024-05-09T18:56:08.821Z,54.49
2024-05-09T18:59:11.300Z,53.07
2024-05-09T19:02:14.011Z,53.50
2024-05-09T19:05:16.674Z,54.24
2024-05-09T19:08:19.264Z,55.00
2024-05-09T19:11:21.744Z,55.06
2024-05-09T19:14:25.134Z,55.23
2024-05-09T19:17:29.401Z,55.90
2024-05-09T19:20:34.807Z,56.03
2024-05-09T19:23:44.320Z,56.30
2024-05-09T19:26:53.623Z,56.69
2024-05-09T19:29:57.838Z,56.93
2024-05-09T19:33:00.622Z,57.08
2024-05-09T19:36:03.592Z,57.39
2024-05-09T19:39:06.166Z,57.93
2024-05-09T19:42:08.859Z,57.92
2024-05-09T19:45:13.067Z,58.10
2024-05-09T19:48:16.120Z,58.53
2024-05-09T19:51:18.738Z,58.60
2024-05-09T19:54:21.248Z,59.26
2024-05-09T19:57:23.780Z,58.79
2024-05-09T20:00:32.697Z,58.47
2024-05-09T20:03:38.538Z,58.97
2024-05-09T20:06:41.477Z,59.30
2024-05-09T20:09:43.965Z,59.47
2024-05-09T20:12:46.467Z,58.78
2024-05-09T20:15:49.098Z,59.64
2024-05-09T20:18:51.783Z,62.42
2024-05-09T20:21:54.483Z,61.59
2024-05-09T20:24:57.077Z,61.21
2024-05-09T20:27:59.703Z,61.50
2024-05-09T20:31:02.830Z,62.27
2024-05-09T20:34:05.396Z,62.68
2024-05-09T20:37:09.140Z,63.12
2024-05-09T20:40:18.435Z,63.20
2024-05-09T20:43:27.857Z,63.92
2024-05-09T20:46:30.426Z,64.11
2024-05-09T20:49:33.083Z,64.16
2024-05-09T20:52:35.789Z,64.63
2024-05-09T20:55:39.132Z,64.93
2024-05-09T20:58:41.610Z,65.73
2024-05-09T21:01:48.817Z,65.88
2024-05-09T21:04:51.911Z,66.21
2024-05-09T21:07:54.460Z,66.31
2024-05-09T21:10:56.971Z,67.14
2024-05-09T21:13:59.460Z,68.01
2024-05-09T21:17:02.047Z,68.01
2024-05-09T21:20:11.303Z,68.84
2024-05-09T21:23:16.733Z,68.77
2024-05-09T21:26:20.205Z,69.01
2024-05-09T21:29:22.697Z,68.38
2024-05-09T21:32:25.293Z,68.42
2024-05-09T21:35:27.859Z,68.82
2024-05-09T21:38:30.548Z,69.11
2024-05-09T21:41:32.998Z,69.08
2024-05-09T21:44:35.539Z,69.03
2024-05-09T21:47:38.185Z,69.29
2024-05-09T21:50:42.513Z,69.55
2024-05-09T21:53:45.711Z,69.76
2024-05-09T21:56:48.232Z,71.44
2024-05-09T21:59:50.720Z,71.90
2024-05-09T22:02:53.379Z,72.67
2024-05-09T22:05:56.181Z,72.03
2024-05-09T22:08:58.720Z,71.46
2024-05-09T22:12:04.457Z,71.63
2024-05-09T22:15:07.062Z,71.94
2024-05-09T22:18:10.751Z,71.56
2024-05-09T22:21:14.380Z,71.88
2024-05-09T22:24:16.960Z,72.00
2024-05-09T22:27:19.459Z,72.70
2024-05-09T22:30:27.912Z,72.96
2024-05-09T22:33:37.393Z,72.66
2024-05-09T22:36:40.044Z,73.00
2024-05-09T22:39:42.707Z,72.90
2024-05-09T22:42:45.255Z,72.78
2024-05-09T22:45:47.868Z,73.26
2024-05-09T22:48:50.508Z,73.23
2024-05-09T22:51:53.031Z,73.18
2024-05-09T22:54:55.843Z,73.30
2024-05-09T22:57:58.482Z,73.64
2024-05-09T23:01:01.118Z,73.89
2024-05-09T23:04:04.119Z,73.97
2024-05-09T23:07:07.110Z,74.27
2024-05-09T23:10:13.456Z,74.35
2024-05-09T23:13:23.431Z,76.14
2024-05-09T23:16:26.117Z,74.49
2024-05-09T23:19:28.831Z,74.30
2024-05-09T23:22:31.379Z,74.23
2024-05-09T23:25:34.678Z,74.78
2024-05-09T23:28:37.304Z,75.34
2024-05-09T23:31:41.355Z,75.94
2024-05-09T23:34:43.878Z,76.02
2024-05-09T23:37:46.376Z,76.26
2024-05-09T23:40:48.934Z,76.03
2024-05-09T23:43:51.485Z,76.17
2024-05-09T23:46:54.092Z,75.88
2024-05-09T23:49:56.765Z,76.25
2024-05-09T23:52:59.190Z,76.15
2024-05-09T23:56:01.707Z,76.24
2024-05-09T23:59:04.227Z,76.37
